sensor_id;sensor_type;location;lat;lon;timestamp;pressure;altitude;pressure_sealevel;temperature;humidity
74895;BME280;63447;49.446;8.666;2023-05-10T00:00:34;99781.22;;;13.97;97.80
74895;BME280;63447;49.446;8.666;2023-05-10T00:02:59;99778.00;;;13.72;98.45
74895;BME280;63447;49.446;8.666;2023-05-10T00:05:29;99772.53;;;13.56;99.42
74895;BME280;63447;49.446;8.666;2023-05-10T00:07:54;99776.69;;;13.66;99.51
74895;BME280;63447;49.446;8.666;2023-05-10T00:10:22;99777.84;;;13.65;100.00
74895;BME280;63447;49.446;8.666;2023-05-10T00:12:48;99792.44;;;13.62;99.17
74895;BME280;63447;49.446;8.666;2023-05-10T00:15:15;99783.31;;;13.62;98.62
74895;BME280;63447;49.446;8.666;2023-05-10T00:17:40;99764.56;;;13.55;99.07
74895;BME280;63447;49.446;8.666;2023-05-10T00:20:09;99772.88;;;13.55;98.88
74895;BME280;63447;49.446;8.666;2023-05-10T00:22:34;99776.47;;;13.75;97.29
74895;BME280;63447;49.446;8.666;2023-05-10T00:25:00;99786.06;;;13.81;96.54
74895;BME280;63447;49.446;8.666;2023-05-10T00:27:28;99776.47;;;13.75;96.28
74895;BME280;63447;49.446;8.666;2023-05-10T00:29:53;99766.69;;;13.62;97.20
74895;BME280;63447;49.446;8.666;2023-05-10T00:32:18;99775.88;;;13.66;97.21
74895;BME280;63447;49.446;8.666;2023-05-10T00:34:48;99775.97;;;13.50;96.48
74895;BME280;63447;49.446;8.666;2023-05-10T00:37:16;99767.66;;;13.50;97.54
74895;BME280;63447;49.446;8.666;2023-05-10T00:39:44;99774.50;;;13.56;97.12
74895;BME280;63447;49.446;8.666;2023-05-10T00:42:11;99778.50;;;13.58;96.00
74895;BME280;63447;49.446;8.666;2023-05-10T00:44:39;99786.66;;;13.71;96.47
74895;BME280;63447;49.446;8.666;2023-05-10T00:47:07;99776.19;;;13.83;96.50
74895;BME280;63447;49.446;8.666;2023-05-10T00:49:35;99779.16;;;13.71;95.12
74895;BME280;63447;49.446;8.666;2023-05-10T00:52:05;99780.19;;;13.63;96.05
74895;BME280;63447;49.446;8.666;2023-05-10T00:54:31;99774.56;;;13.59;95.55
74895;BME280;63447;49.446;8.666;2023-05-10T00:56:59;99792.41;;;13.81;95.74
74895;BME280;63447;49.446;8.666;2023-05-10T00:59:27;99783.59;;;13.76;95.05
74895;BME280;63447;49.446;8.666;2023-05-10T01:01:53;99785.13;;;13.54;95.26
74895;BME280;63447;49.446;8.666;2023-05-10T01:04:18;99797.69;;;13.67;96.13
74895;BME280;63447;49.446;8.666;2023-05-10T01:06:46;99785.28;;;13.61;96.56
74895;BME280;63447;49.446;8.666;2023-05-10T01:12:52;99751.22;;;13.61;93.85
74895;BME280;63447;49.446;8.666;2023-05-10T01:15:18;99794.44;;;13.84;94.17
74895;BME280;63447;49.446;8.666;2023-05-10T01:17:50;99800.66;;;13.78;93.89
74895;BME280;63447;49.446;8.666;2023-05-10T01:20:16;99785.25;;;13.80;94.53
74895;BME280;63447;49.446;8.666;2023-05-10T01:23:17;99788.34;;;13.75;94.54
74895;BME280;63447;49.446;8.666;2023-05-10T01:34:23;99805.56;;;13.65;94.85
74895;BME280;63447;49.446;8.666;2023-05-10T01:39:46;99795.28;;;13.66;95.78
74895;BME280;63447;49.446;8.666;2023-05-10T01:45:11;99804.75;;;13.65;94.10
74895;BME280;63447;49.446;8.666;2023-05-10T01:47:43;99803.69;;;13.50;95.69
74895;BME280;63447;49.446;8.666;2023-05-10T01:50:15;99805.44;;;13.39;95.72
74895;BME280;63447;49.446;8.666;2023-05-10T01:52:50;99806.50;;;13.53;96.72
74895;BME280;63447;49.446;8.666;2023-05-10T01:55:21;99794.78;;;13.60;94.76
74895;BME280;63447;49.446;8.666;2023-05-10T01:57:50;99821.09;;;13.70;93.41
74895;BME280;63447;49.446;8.666;2023-05-10T02:00:20;99817.13;;;13.48;94.16
74895;BME280;63447;49.446;8.666;2023-05-10T02:02:48;99803.22;;;13.29;95.57
74895;BME280;63447;49.446;8.666;2023-05-10T02:05:16;99801.50;;;13.40;95.56
74895;BME280;63447;49.446;8.666;2023-05-10T02:07:45;99815.63;;;13.54;95.15
74895;BME280;63447;49.446;8.666;2023-05-10T02:10:12;99810.84;;;13.51;95.23
74895;BME280;63447;49.446;8.666;2023-05-10T02:12:43;99819.78;;;13.64;94.09
74895;BME280;63447;49.446;8.666;2023-05-10T02:15:11;99811.69;;;13.55;94.77
74895;BME280;63447;49.446;8.666;2023-05-10T02:17:41;99827.66;;;13.62;95.10
74895;BME280;63447;49.446;8.666;2023-05-10T02:20:10;99821.50;;;13.49;95.20
74895;BME280;63447;49.446;8.666;2023-05-10T02:22:37;99826.00;;;13.57;96.54
74895;BME280;63447;49.446;8.666;2023-05-10T02:25:07;99829.63;;;13.61;96.54
74895;BME280;63447;49.446;8.666;2023-05-10T02:27:33;99828.31;;;13.55;95.90
74895;BME280;63447;49.446;8.666;2023-05-10T02:30:02;99823.91;;;13.50;96.28
74895;BME280;63447;49.446;8.666;2023-05-10T02:32:30;99832.63;;;13.52;94.59
74895;BME280;63447;49.446;8.666;2023-05-10T02:35:01;99836.44;;;13.44;94.57
74895;BME280;63447;49.446;8.666;2023-05-10T02:37:31;99828.78;;;13.38;94.54
74895;BME280;63447;49.446;8.666;2023-05-10T02:39:58;99841.75;;;13.53;95.00
74895;BME280;63447;49.446;8.666;2023-05-10T02:42:26;99846.28;;;13.61;94.76
74895;BME280;63447;49.446;8.666;2023-05-10T02:44:59;99840.94;;;13.52;94.29
74895;BME280;63447;49.446;8.666;2023-05-10T02:47:30;99840.91;;;13.49;94.74
74895;BME280;63447;49.446;8.666;2023-05-10T02:50:00;99826.28;;;13.52;94.91
74895;BME280;63447;49.446;8.666;2023-05-10T02:52:34;99832.78;;;13.59;94.87
74895;BME280;63447;49.446;8.666;2023-05-10T02:55:02;99840.81;;;13.65;93.43
74895;BME280;63447;49.446;8.666;2023-05-10T02:57:36;99839.84;;;13.57;93.95
74895;BME280;63447;49.446;8.666;2023-05-10T03:00:06;99845.03;;;13.58;93.52
74895;BME280;63447;49.446;8.666;2023-05-10T03:02:37;99837.69;;;13.47;93.61
74895;BME280;63447;49.446;8.666;2023-05-10T03:05:04;99850.81;;;13.50;94.23
74895;BME280;63447;49.446;8.666;2023-05-10T03:07:33;99851.22;;;13.52;94.16
74895;BME280;63447;49.446;8.666;2023-05-10T03:10:02;99843.22;;;13.47;93.38
74895;BME280;63447;49.446;8.666;2023-05-10T03:17:55;99820.66;;;13.29;94.95
74895;BME280;63447;49.446;8.666;2023-05-10T03:23:06;99841.16;;;13.24;95.03
74895;BME280;63447;49.446;8.666;2023-05-10T03:25:33;99846.31;;;13.26;94.61
74895;BME280;63447;49.446;8.666;2023-05-10T03:28:01;99844.66;;;13.21;94.44
74895;BME280;63447;49.446;8.666;2023-05-10T03:30:26;99855.50;;;13.30;95.07
74895;BME280;63447;49.446;8.666;2023-05-10T03:33:04;99840.28;;;13.20;94.87
74895;BME280;63447;49.446;8.666;2023-05-10T03:35:31;99847.44;;;13.21;94.56
74895;BME280;63447;49.446;8.666;2023-05-10T03:37:57;99849.47;;;13.24;94.65
74895;BME280;63447;49.446;8.666;2023-05-10T03:40:26;99862.38;;;13.36;94.46
74895;BME280;63447;49.446;8.666;2023-05-10T03:42:54;99848.44;;;13.33;94.21
74895;BME280;63447;49.446;8.666;2023-05-10T03:45:19;99860.16;;;13.26;94.68
74895;BME280;63447;49.446;8.666;2023-05-10T03:47:47;99860.75;;;13.16;95.79
74895;BME280;63447;49.446;8.666;2023-05-10T03:50:12;99857.25;;;13.03;95.29
74895;BME280;63447;49.446;8.666;2023-05-10T03:52:37;99857.84;;;12.93;96.80
74895;BME280;63447;49.446;8.666;2023-05-10T03:55:05;99837.22;;;12.75;97.21
74895;BME280;63447;49.446;8.666;2023-05-10T03:57:30;99863.09;;;12.98;97.23
74895;BME280;63447;49.446;8.666;2023-05-10T03:59:58;99852.28;;;12.93;96.89
74895;BME280;63447;49.446;8.666;2023-05-10T04:02:26;99872.94;;;12.96;96.56
74895;BME280;63447;49.446;8.666;2023-05-10T04:04:51;99856.66;;;12.94;96.85
74895;BME280;63447;49.446;8.666;2023-05-10T04:07:16;99864.25;;;12.97;96.86
74895;BME280;63447;49.446;8.666;2023-05-10T04:09:45;99866.66;;;12.99;97.35
74895;BME280;63447;49.446;8.666;2023-05-10T04:12:13;99881.03;;;13.04;97.76
74895;BME280;63447;49.446;8.666;2023-05-10T04:14:38;99850.06;;;12.83;97.15
74895;BME280;63447;49.446;8.666;2023-05-10T04:17:06;99877.81;;;13.02;97.95
74895;BME280;63447;49.446;8.666;2023-05-10T04:19:34;99869.06;;;13.00;96.88
74895;BME280;63447;49.446;8.666;2023-05-10T04:21:59;99884.38;;;12.94;96.99
74895;BME280;63447;49.446;8.666;2023-05-10T04:24:25;99887.38;;;13.05;96.20
74895;BME280;63447;49.446;8.666;2023-05-10T04:26:51;99890.75;;;13.14;96.38
74895;BME280;63447;49.446;8.666;2023-05-10T04:29:16;99882.75;;;12.93;96.14
74895;BME280;63447;49.446;8.666;2023-05-10T04:31:44;99881.94;;;12.93;97.45
74895;BME280;63447;49.446;8.666;2023-05-10T04:34:11;99896.59;;;12.93;97.79
74895;BME280;63447;49.446;8.666;2023-05-10T04:36:36;99891.41;;;12.91;97.68
74895;BME280;63447;49.446;8.666;2023-05-10T04:39:03;99891.66;;;13.02;97.15
74895;BME280;63447;49.446;8.666;2023-05-10T04:41:31;99888.03;;;12.98;97.77
74895;BME280;63447;49.446;8.666;2023-05-10T04:43:59;99886.56;;;13.04;97.46
74895;BME280;63447;49.446;8.666;2023-05-10T04:46:24;99901.88;;;12.98;96.95
74895;BME280;63447;49.446;8.666;2023-05-10T04:48:49;99908.38;;;12.90;98.49
74895;BME280;63447;49.446;8.666;2023-05-10T04:51:15;99897.94;;;12.99;99.30
74895;BME280;63447;49.446;8.666;2023-05-10T04:53:40;99902.81;;;13.06;97.98
74895;BME280;63447;49.446;8.666;2023-05-10T04:56:08;99911.13;;;13.06;97.62
74895;BME280;63447;49.446;8.666;2023-05-10T04:58:33;99903.34;;;13.11;97.93
74895;BME280;63447;49.446;8.666;2023-05-10T05:01:07;99908.81;;;13.08;97.78
74895;BME280;63447;49.446;8.666;2023-05-10T05:03:33;99900.84;;;13.06;98.12
74895;BME280;63447;49.446;8.666;2023-05-10T05:05:59;99898.44;;;13.05;97.73
74895;BME280;63447;49.446;8.666;2023-05-10T05:08:26;99919.25;;;13.14;98.52
74895;BME280;63447;49.446;8.666;2023-05-10T05:10:56;99916.97;;;13.16;98.08
74895;BME280;63447;49.446;8.666;2023-05-10T05:13:21;99917.03;;;13.04;97.73
74895;BME280;63447;49.446;8.666;2023-05-10T05:15:47;99911.41;;;13.01;98.40
74895;BME280;63447;49.446;8.666;2023-05-10T05:18:12;99919.09;;;13.07;98.47
74895;BME280;63447;49.446;8.666;2023-05-10T05:20:37;99918.94;;;13.16;98.60
74895;BME280;63447;49.446;8.666;2023-05-10T05:23:03;99921.69;;;13.16;97.76
74895;BME280;63447;49.446;8.666;2023-05-10T05:25:28;99912.59;;;13.15;97.93
74895;BME280;63447;49.446;8.666;2023-05-10T05:27:53;99924.00;;;13.14;97.10
74895;BME280;63447;49.446;8.666;2023-05-10T05:30:21;99924.19;;;13.21;96.77
74895;BME280;63447;49.446;8.666;2023-05-10T05:32:48;99923.91;;;13.26;97.24
74895;BME280;63447;49.446;8.666;2023-05-10T05:35:17;99924.09;;;13.17;96.81
74895;BME280;63447;49.446;8.666;2023-05-10T05:37:42;99923.53;;;13.28;96.65
74895;BME280;63447;49.446;8.666;2023-05-10T05:40:12;99916.81;;;13.44;96.46
74895;BME280;63447;49.446;8.666;2023-05-10T05:42:40;99930.75;;;13.48;95.29
74895;BME280;63447;49.446;8.666;2023-05-10T05:45:05;99929.13;;;13.47;94.06
74895;BME280;63447;49.446;8.666;2023-05-10T05:47:31;99934.88;;;13.38;94.21
74895;BME280;63447;49.446;8.666;2023-05-10T05:49:56;99934.16;;;13.41;94.24
74895;BME280;63447;49.446;8.666;2023-05-10T05:52:26;99937.00;;;13.45;94.98
74895;BME280;63447;49.446;8.666;2023-05-10T05:54:52;99940.00;;;13.55;94.14
74895;BME280;63447;49.446;8.666;2023-05-10T05:57:17;99935.97;;;13.53;94.45
74895;BME280;63447;49.446;8.666;2023-05-10T05:59:45;99943.28;;;13.42;93.51
74895;BME280;63447;49.446;8.666;2023-05-10T06:02:13;99950.06;;;13.44;92.23
74895;BME280;63447;49.446;8.666;2023-05-10T06:04:38;99952.91;;;13.48;93.11
74895;BME280;63447;49.446;8.666;2023-05-10T06:07:04;99950.16;;;13.48;93.44
74895;BME280;63447;49.446;8.666;2023-05-10T06:09:29;99955.81;;;13.55;91.93
74895;BME280;63447;49.446;8.666;2023-05-10T06:11:54;99957.16;;;13.61;91.92
74895;BME280;63447;49.446;8.666;2023-05-10T06:14:22;99965.47;;;13.61;92.23
74895;BME280;63447;49.446;8.666;2023-05-10T06:16:48;99970.19;;;13.41;93.65
74895;BME280;63447;49.446;8.666;2023-05-10T06:19:13;99963.31;;;13.35;93.04
74895;BME280;63447;49.446;8.666;2023-05-10T06:21:41;99976.97;;;13.44;93.51
74895;BME280;63447;49.446;8.666;2023-05-10T06:24:06;99973.75;;;13.42;92.75
74895;BME280;63447;49.446;8.666;2023-05-10T06:26:32;99979.41;;;13.30;93.79
74895;BME280;63447;49.446;8.666;2023-05-10T06:28:59;99975.72;;;13.41;93.83
74895;BME280;63447;49.446;8.666;2023-05-10T06:31:25;99971.25;;;13.37;94.49
74895;BME280;63447;49.446;8.666;2023-05-10T06:33:50;99979.84;;;13.47;93.61
74895;BME280;63447;49.446;8.666;2023-05-10T06:36:18;99986.31;;;13.55;92.38
74895;BME280;63447;49.446;8.666;2023-05-10T06:38:49;99973.94;;;13.49;93.17
74895;BME280;63447;49.446;8.666;2023-05-10T06:41:18;99985.50;;;13.54;93.43
74895;BME280;63447;49.446;8.666;2023-05-10T06:43:43;99966.84;;;13.51;93.15
74895;BME280;63447;49.446;8.666;2023-05-10T06:46:09;99980.22;;;13.65;93.52
74895;BME280;63447;49.446;8.666;2023-05-10T06:48:36;99980.47;;;13.76;92.35
74895;BME280;63447;49.446;8.666;2023-05-10T06:51:02;99990.00;;;13.78;92.71
74895;BME280;63447;49.446;8.666;2023-05-10T06:53:27;99985.94;;;13.72;92.31
74895;BME280;63447;49.446;8.666;2023-05-10T06:55:58;99986.06;;;13.79;92.27
74895;BME280;63447;49.446;8.666;2023-05-10T06:58:25;99985.13;;;13.72;93.38
74895;BME280;63447;49.446;8.666;2023-05-10T07:01:01;99996.84;;;13.65;93.45
74895;BME280;63447;49.446;8.666;2023-05-10T07:03:26;99995.34;;;13.68;92.87
74895;BME280;63447;49.446;8.666;2023-05-10T07:05:52;99991.41;;;13.69;94.68
74895;BME280;63447;49.446;8.666;2023-05-10T07:08:17;99991.19;;;13.77;93.66
74895;BME280;63447;49.446;8.666;2023-05-10T07:10:43;99995.31;;;14.03;91.95
74895;BME280;63447;49.446;8.666;2023-05-10T07:13:08;99996.31;;;13.95;91.39
74895;BME280;63447;49.446;8.666;2023-05-10T07:15:38;100004.38;;;14.00;91.57
74895;BME280;63447;49.446;8.666;2023-05-10T07:18:03;100007.69;;;14.09;91.76
74895;BME280;63447;49.446;8.666;2023-05-10T07:20:33;99999.09;;;14.14;91.09
74895;BME280;63447;49.446;8.666;2023-05-10T07:22:59;99962.59;;;14.12;90.36
74895;BME280;63447;49.446;8.666;2023-05-10T07:25:24;99998.19;;;14.68;87.68
74895;BME280;63447;49.446;8.666;2023-05-10T07:27:49;99995.16;;;14.53;87.66
74895;BME280;63447;49.446;8.666;2023-05-10T07:30:16;99992.94;;;14.63;88.34
74895;BME280;63447;49.446;8.666;2023-05-10T07:32:43;99997.19;;;14.56;88.81
74895;BME280;63447;49.446;8.666;2023-05-10T07:35:11;100000.34;;;14.55;88.32
74895;BME280;63447;49.446;8.666;2023-05-10T07:37:36;99996.16;;;14.65;87.69
74895;BME280;63447;49.446;8.666;2023-05-10T07:40:02;100001.56;;;14.77;87.12
74895;BME280;63447;49.446;8.666;2023-05-10T07:42:27;99997.59;;;14.55;87.81
74895;BME280;63447;49.446;8.666;2023-05-10T07:44:55;99973.31;;;14.52;87.15
74895;BME280;63447;49.446;8.666;2023-05-10T07:47:20;100006.66;;;14.75;86.58
74895;BME280;63447;49.446;8.666;2023-05-10T07:49:45;99990.25;;;14.89;86.43
74895;BME280;63447;49.446;8.666;2023-05-10T07:52:11;99992.59;;;14.87;84.08
74895;BME280;63447;49.446;8.666;2023-05-10T07:54:39;100007.50;;;14.56;86.34
74895;BME280;63447;49.446;8.666;2023-05-10T07:57:04;100005.81;;;14.71;85.57
74895;BME280;63447;49.446;8.666;2023-05-10T07:59:29;100005.59;;;14.83;86.85
74895;BME280;63447;49.446;8.666;2023-05-10T08:01:55;100014.16;;;14.93;86.98
74895;BME280;63447;49.446;8.666;2023-05-10T08:04:23;100010.56;;;14.93;85.33
74895;BME280;63447;49.446;8.666;2023-05-10T08:06:49;100013.22;;;15.09;83.96
74895;BME280;63447;49.446;8.666;2023-05-10T08:09:16;100013.41;;;15.19;83.78
74895;BME280;63447;49.446;8.666;2023-05-10T08:11:45;100020.88;;;15.15;81.77
74895;BME280;63447;49.446;8.666;2023-05-10T08:14:10;100019.09;;;14.81;83.87
74895;BME280;63447;49.446;8.666;2023-05-10T08:16:35;100013.22;;;14.86;84.12
74895;BME280;63447;49.446;8.666;2023-05-10T08:19:03;100016.19;;;14.74;85.01
74895;BME280;63447;49.446;8.666;2023-05-10T08:21:31;100013.78;;;14.95;84.11
74895;BME280;63447;49.446;8.666;2023-05-10T08:23:56;100012.41;;;15.31;80.67
74895;BME280;63447;49.446;8.666;2023-05-10T08:26:21;100005.50;;;15.71;80.43
74895;BME280;63447;49.446;8.666;2023-05-10T08:28:47;100013.28;;;15.88;78.90
74895;BME280;63447;49.446;8.666;2023-05-10T08:31:14;100008.81;;;15.80;77.38
74895;BME280;63447;49.446;8.666;2023-05-10T08:33:40;100005.41;;;15.41;80.39
74895;BME280;63447;49.446;8.666;2023-05-10T08:36:05;99998.13;;;15.33;79.31
74895;BME280;63447;49.446;8.666;2023-05-10T08:38:33;100014.94;;;15.17;80.76
74895;BME280;63447;49.446;8.666;2023-05-10T08:41:02;100023.47;;;15.05;79.98
74895;BME280;63447;49.446;8.666;2023-05-10T08:43:31;100016.31;;;15.26;80.15
74895;BME280;63447;49.446;8.666;2023-05-10T08:46:00;100019.84;;;15.50;79.06
74895;BME280;63447;49.446;8.666;2023-05-10T08:48:29;100027.00;;;15.24;79.04
74895;BME280;63447;49.446;8.666;2023-05-10T08:50:55;100010.75;;;15.26;78.07
74895;BME280;63447;49.446;8.666;2023-05-10T08:53:24;100027.19;;;15.61;76.97
74895;BME280;63447;49.446;8.666;2023-05-10T08:55:53;100029.94;;;15.84;76.10
74895;BME280;63447;49.446;8.666;2023-05-10T08:58:19;100028.34;;;15.83;74.18
74895;BME280;63447;49.446;8.666;2023-05-10T09:00:48;100015.50;;;16.05;75.29
74895;BME280;63447;49.446;8.666;2023-05-10T09:03:17;100012.78;;;16.09;76.09
74895;BME280;63447;49.446;8.666;2023-05-10T09:05:43;100037.41;;;16.37;74.90
74895;BME280;63447;49.446;8.666;2023-05-10T09:08:13;100027.16;;;15.84;76.17
74895;BME280;63447;49.446;8.666;2023-05-10T09:10:39;100037.94;;;15.89;76.69
74895;BME280;63447;49.446;8.666;2023-05-10T09:13:07;100032.28;;;15.56;76.92
74895;BME280;63447;49.446;8.666;2023-05-10T09:15:34;100033.34;;;15.74;76.69
74895;BME280;63447;49.446;8.666;2023-05-10T09:18:03;100038.59;;;15.79;75.45
74895;BME280;63447;49.446;8.666;2023-05-10T09:20:29;100038.75;;;15.64;78.01
74895;BME280;63447;49.446;8.666;2023-05-10T09:22:55;100046.03;;;15.49;77.59
74895;BME280;63447;49.446;8.666;2023-05-10T09:25:23;100047.91;;;15.64;76.88
74895;BME280;63447;49.446;8.666;2023-05-10T09:27:48;100047.91;;;15.64;77.08
74895;BME280;63447;49.446;8.666;2023-05-10T09:32:49;100037.84;;;15.56;76.66
74895;BME280;63447;49.446;8.666;2023-05-10T09:35:26;100061.34;;;15.85;75.96
74895;BME280;63447;49.446;8.666;2023-05-10T09:37:57;100054.97;;;15.84;74.66
74895;BME280;63447;49.446;8.666;2023-05-10T09:40:24;100054.84;;;16.04;74.51
74895;BME280;63447;49.446;8.666;2023-05-10T09:45:28;100061.91;;;15.98;72.68
74895;BME280;63447;49.446;8.666;2023-05-10T09:47:53;100050.09;;;16.04;73.06
74895;BME280;63447;49.446;8.666;2023-05-10T09:50:20;100061.47;;;15.95;73.72
74895;BME280;63447;49.446;8.666;2023-05-10T09:53:01;100046.66;;;15.88;73.86
74895;BME280;63447;49.446;8.666;2023-05-10T09:58:04;100067.78;;;15.92;74.41
74895;BME280;63447;49.446;8.666;2023-05-10T10:00:36;100056.34;;;15.98;73.25
74895;BME280;63447;49.446;8.666;2023-05-10T10:03:02;100069.81;;;16.22;72.96
74895;BME280;63447;49.446;8.666;2023-05-10T10:05:29;100059.84;;;16.21;72.96
74895;BME280;63447;49.446;8.666;2023-05-10T10:07:55;100066.28;;;16.25;72.08
74895;BME280;63447;49.446;8.666;2023-05-10T10:10:22;100074.22;;;16.56;71.69
74895;BME280;63447;49.446;8.666;2023-05-10T10:12:47;100070.59;;;16.52;70.28
74895;BME280;63447;49.446;8.666;2023-05-10T10:15:13;100074.78;;;16.69;70.12
74895;BME280;63447;49.446;8.666;2023-05-10T10:17:39;100072.81;;;16.40;71.54
74895;BME280;63447;49.446;8.666;2023-05-10T10:20:06;100073.63;;;16.40;72.15
74895;BME280;63447;49.446;8.666;2023-05-10T10:22:32;100071.31;;;16.46;72.76
74895;BME280;63447;49.446;8.666;2023-05-10T10:24:58;100064.34;;;16.29;74.76
74895;BME280;63447;49.446;8.666;2023-05-10T10:27:28;100075.59;;;16.40;72.74
74895;BME280;63447;49.446;8.666;2023-05-10T10:35:31;100091.94;;;15.58;78.01
74895;BME280;63447;49.446;8.666;2023-05-10T10:37:57;100088.75;;;15.14;80.32
74895;BME280;63447;49.446;8.666;2023-05-10T10:42:56;100103.59;;;14.80;83.70
74895;BME280;63447;49.446;8.666;2023-05-10T10:45:22;100090.50;;;14.61;80.71
74895;BME280;63447;49.446;8.666;2023-05-10T10:48:25;100096.13;;;14.65;82.18
74895;BME280;63447;49.446;8.666;2023-05-10T10:50:58;100101.06;;;14.94;79.53
74895;BME280;63447;49.446;8.666;2023-05-10T10:53:28;100104.31;;;15.42;79.07
74895;BME280;63447;49.446;8.666;2023-05-10T10:56:11;100094.75;;;15.62;79.96
74895;BME280;63447;49.446;8.666;2023-05-10T10:58:39;100085.97;;;16.13;75.83
74895;BME280;63447;49.446;8.666;2023-05-10T11:01:17;100088.72;;;16.39;78.79
74895;BME280;63447;49.446;8.666;2023-05-10T11:06:35;100081.47;;;16.98;71.16
74895;BME280;63447;49.446;8.666;2023-05-10T11:09:13;100073.13;;;17.42;72.90
74895;BME280;63447;49.446;8.666;2023-05-10T11:11:52;100079.91;;;17.85;70.36
74895;BME280;63447;49.446;8.666;2023-05-10T11:14:21;100088.97;;;17.75;66.58
74895;BME280;63447;49.446;8.666;2023-05-10T11:16:47;100083.41;;;17.75;65.32
74895;BME280;63447;49.446;8.666;2023-05-10T11:19:14;100086.31;;;17.93;61.73
74895;BME280;63447;49.446;8.666;2023-05-10T11:24:33;100086.72;;;18.60;61.51
74895;BME280;63447;49.446;8.666;2023-05-10T11:27:00;100071.59;;;18.69;60.54
74895;BME280;63447;49.446;8.666;2023-05-10T11:29:28;100087.25;;;19.05;61.57
74895;BME280;63447;49.446;8.666;2023-05-10T11:31:57;100082.81;;;18.86;61.27
74895;BME280;63447;49.446;8.666;2023-05-10T11:36:54;100075.38;;;18.32;59.91
74895;BME280;63447;49.446;8.666;2023-05-10T11:39:26;100076.44;;;18.06;62.33
74895;BME280;63447;49.446;8.666;2023-05-10T11:41:51;100081.28;;;18.13;62.75
74895;BME280;63447;49.446;8.666;2023-05-10T11:44:19;100090.56;;;18.35;63.12
74895;BME280;63447;49.446;8.666;2023-05-10T11:46:45;100089.53;;;17.98;59.77
74895;BME280;63447;49.446;8.666;2023-05-10T11:49:10;100075.31;;;17.63;60.42
74895;BME280;63447;49.446;8.666;2023-05-10T11:51:36;100095.09;;;17.47;59.50
74895;BME280;63447;49.446;8.666;2023-05-10T11:54:09;100101.88;;;17.46;59.34
74895;BME280;63447;49.446;8.666;2023-05-10T11:56:35;100097.75;;;17.29;58.75
74895;BME280;63447;49.446;8.666;2023-05-10T11:59:00;100095.78;;;17.34;58.27
74895;BME280;63447;49.446;8.666;2023-05-10T12:01:28;100104.13;;;17.30;57.69
74895;BME280;63447;49.446;8.666;2023-05-10T12:03:55;100103.50;;;17.51;57.03
74895;BME280;63447;49.446;8.666;2023-05-10T12:06:26;100103.56;;;17.58;57.54
74895;BME280;63447;49.446;8.666;2023-05-10T12:08:52;100102.53;;;17.73;58.93
74895;BME280;63447;49.446;8.666;2023-05-10T12:11:18;100099.06;;;17.87;59.04
74895;BME280;63447;49.446;8.666;2023-05-10T12:13:48;100101.75;;;17.76;59.99
74895;BME280;63447;49.446;8.666;2023-05-10T12:16:22;100098.34;;;18.04;61.21
74895;BME280;63447;49.446;8.666;2023-05-10T12:18:49;100103.56;;;18.06;57.84
74895;BME280;63447;49.446;8.666;2023-05-10T12:21:18;100101.47;;;17.92;58.97
74895;BME280;63447;49.446;8.666;2023-05-10T12:23:45;100090.22;;;18.47;57.37
74895;BME280;63447;49.446;8.666;2023-05-10T12:26:11;100106.34;;;18.78;56.96
74895;BME280;63447;49.446;8.666;2023-05-10T12:28:38;100099.25;;;19.23;56.20
74895;BME280;63447;49.446;8.666;2023-05-10T12:31:07;100102.81;;;18.92;53.66
74895;BME280;63447;49.446;8.666;2023-05-10T12:33:41;100110.00;;;18.93;54.77
74895;BME280;63447;49.446;8.666;2023-05-10T12:36:08;100117.47;;;18.64;57.39
74895;BME280;63447;49.446;8.666;2023-05-10T12:41:06;100126.16;;;17.86;57.60
74895;BME280;63447;49.446;8.666;2023-05-10T12:43:32;100119.94;;;17.59;58.56
74895;BME280;63447;49.446;8.666;2023-05-10T12:45:58;100125.19;;;17.65;59.18
74895;BME280;63447;49.446;8.666;2023-05-10T12:48:23;100124.91;;;17.80;58.59
74895;BME280;63447;49.446;8.666;2023-05-10T12:50:49;100086.69;;;17.88;57.96
74895;BME280;63447;49.446;8.666;2023-05-10T12:53:17;100118.88;;;18.33;57.08
74895;BME280;63447;49.446;8.666;2023-05-10T12:55:44;100122.41;;;18.23;56.88
74895;BME280;63447;49.446;8.666;2023-05-10T12:58:12;100130.97;;;17.89;56.21
74895;BME280;63447;49.446;8.666;2023-05-10T13:00:37;100122.47;;;17.75;56.13
74895;BME280;63447;49.446;8.666;2023-05-10T13:03:06;100126.81;;;17.69;56.46
74895;BME280;63447;49.446;8.666;2023-05-10T13:05:32;100127.09;;;18.08;55.60
74895;BME280;63447;49.446;8.666;2023-05-10T13:07:58;100127.09;;;18.08;54.51
74895;BME280;63447;49.446;8.666;2023-05-10T13:10:24;100126.03;;;17.72;55.40
74895;BME280;63447;49.446;8.666;2023-05-10T13:12:52;100126.66;;;18.03;56.11
74895;BME280;63447;49.446;8.666;2023-05-10T13:15:17;100127.50;;;18.76;54.02
74895;BME280;63447;49.446;8.666;2023-05-10T13:17:45;100123.63;;;19.09;52.21
74895;BME280;63447;49.446;8.666;2023-05-10T13:20:13;100118.75;;;18.88;53.00
74895;BME280;63447;49.446;8.666;2023-05-10T13:22:40;100128.38;;;19.01;52.50
74895;BME280;63447;49.446;8.666;2023-05-10T13:25:08;100118.91;;;19.52;51.20
74895;BME280;63447;49.446;8.666;2023-05-10T13:27:33;100120.50;;;19.53;49.21
74895;BME280;63447;49.446;8.666;2023-05-10T13:30:02;100120.50;;;19.46;47.97
74895;BME280;63447;49.446;8.666;2023-05-10T13:32:29;100110.06;;;19.18;49.40
74895;BME280;63447;49.446;8.666;2023-05-10T13:34:57;100100.50;;;19.47;49.07
74895;BME280;63447;49.446;8.666;2023-05-10T13:37:27;100113.28;;;19.45;47.75
74895;BME280;63447;49.446;8.666;2023-05-10T13:39:55;100111.28;;;19.42;48.23
74895;BME280;63447;49.446;8.666;2023-05-10T13:42:22;100104.97;;;18.40;49.35
74895;BME280;63447;49.446;8.666;2023-05-10T13:44:50;100116.16;;;18.47;50.16
74895;BME280;63447;49.446;8.666;2023-05-10T13:47:16;100113.91;;;18.78;48.80
74895;BME280;63447;49.446;8.666;2023-05-10T13:49:41;100105.19;;;18.97;50.66